createdAt,value
2024-05-09T00:03:10.096Z,102212.22
2024-05-09T00:08:13.275Z,102211.53
2024-05-09T00:13:14.949Z,102209.09
2024-05-09T00:18:16.741Z,102207.53
2024-05-09T00:23:18.447Z,102199.78
2024-05-09T00:28:20.042Z,102209.81
2024-05-09T00:33:21.832Z,102206.91
2024-05-09T00:38:23.472Z,102201.78
2024-05-09T00:43:25.016Z,102199.25
2024-05-09T00:48:27.194Z,102208.50
2024-05-09T00:53:29.506Z,102207.06
2024-05-09T00:58:31.777Z,102206.84
2024-05-09T01:03:33.475Z,102190.09
2024-05-09T01:08:35.270Z,102200.22
2024-05-09T01:13:36.882Z,102201.91
2024-05-09T01:18:38.614Z,102201.88
2024-05-09T01:23:40.262Z,102194.97
2024-05-09T01:28:41.875Z,102188.81
2024-05-09T01:33:43.682Z,102185.50
2024-05-09T01:45:46.488Z,102187.00
2024-05-09T01:50:48.097Z,102188.13
2024-05-09T01:55:49.754Z,102192.91
2024-05-09T02:00:51.682Z,102183.00
2024-05-09T02:05:53.509Z,102187.00
2024-05-09T02:10:55.209Z,102182.28
2024-05-09T02:15:56.826Z,102181.41
2024-05-09T02:20:58.413Z,102186.56
2024-05-09T02:26:00.046Z,102183.69
2024-05-09T02:31:01.637Z,102187.44
2024-05-09T02:36:03.335Z,102177.97
2024-05-09T02:41:04.976Z,102179.47
2024-05-09T02:46:07.065Z,102171.72
2024-05-09T02:51:08.828Z,102178.47
2024-05-09T02:56:10.518Z,102176.78
2024-05-09T03:01:12.167Z,102169.34
2024-05-09T03:06:13.941Z,102159.88
2024-05-09T03:11:23.627Z,102173.25
2024-05-09T03:16:25.214Z,102164.34
2024-05-09T03:21:26.960Z,102169.16
2024-05-09T03:26:28.669Z,102165.00
2024-05-09T03:31:30.264Z,102172.25
2024-05-09T03:36:31.815Z,102175.06
2024-05-09T03:41:33.540Z,102163.72
2024-05-09T03:46:38.819Z,102170.66
2024-05-09T03:51:40.379Z,102172.34
2024-05-09T03:56:41.995Z,102173.16
2024-05-09T04:01:43.755Z,102175.63
2024-05-09T04:06:45.389Z,102177.56
2024-05-09T04:11:48.739Z,102178.63
2024-05-09T04:16:50.427Z,102183.63
2024-05-09T04:21:52.025Z,102187.09
2024-05-09T04:26:53.615Z,102177.13
2024-05-09T04:31:55.321Z,102189.56
2024-05-09T04:36:57.082Z,102171.25
2024-05-09T04:41:58.780Z,102170.19
2024-05-09T04:47:00.374Z,102178.28
2024-05-09T04:52:02.149Z,102171.25
2024-05-09T04:57:03.881Z,102167.97
2024-05-09T05:02:05.586Z,102169.25
2024-05-09T05:07:07.231Z,102172.19
2024-05-09T05:12:28.863Z,102175.00
2024-05-09T05:17:30.669Z,102181.50
2024-05-09T05:22:32.276Z,102179.47
2024-05-09T05:27:33.824Z,102190.81
2024-05-09T05:32:35.462Z,102188.84
2024-05-09T05:37:37.134Z,102185.25
2024-05-09T05:42:38.715Z,102193.13
2024-05-09T05:47:40.464Z,102210.19
2024-05-09T05:52:42.215Z,102198.06
2024-05-09T05:57:43.767Z,102194.16
2024-05-09T06:02:45.477Z,102203.03
2024-05-09T06:07:47.178Z,102196.00
2024-05-09T06:12:48.755Z,102205.34
2024-05-09T06:17:50.435Z,102199.97
2024-05-09T06:22:52.099Z,102197.09
2024-05-09T06:27:53.689Z,102196.84
2024-05-09T06:32:55.310Z,102192.53
2024-05-09T06:37:57.004Z,102197.44
2024-05-09T06:42:59.132Z,102198.03
2024-05-09T06:48:00.945Z,102190.97
2024-05-09T06:53:02.914Z,102194.50
2024-05-09T06:58:06.023Z,102200.78
2024-05-09T07:03:13.629Z,102196.34
2024-05-09T07:08:18.380Z,102194.16
2024-05-09T07:13:20.072Z,102199.13
2024-05-09T07:18:21.962Z,102204.66
2024-05-09T07:23:23.641Z,102206.56
2024-05-09T07:28:26.192Z,102200.91
2024-05-09T07:33:27.896Z,102208.44
2024-05-09T07:38:29.540Z,102209.59
2024-05-09T07:43:31.119Z,102202.78
2024-05-09T07:50:33.298Z,102202.50
2024-05-09T07:53:57.104Z,102204.03
2024-05-09T07:59:01.234Z,102199.38
2024-05-09T08:04:02.923Z,102206.59
2024-05-09T08:09:08.221Z,102198.69
2024-05-09T08:14:15.202Z,102198.91
2024-05-09T08:19:16.868Z,102191.50
2024-05-09T08:24:18.456Z,102192.50
2024-05-09T08:29:20.146Z,102193.13
2024-05-09T08:34:22.014Z,102188.25
2024-05-09T08:39:23.734Z,102181.38
2024-05-09T08:44:25.304Z,102180.38
2024-05-09T08:49:26.973Z,102187.31
2024-05-09T08:54:30.180Z,102178.94
2024-05-09T08:59:38.327Z,102188.16
2024-05-09T09:04:40.986Z,102175.56
2024-05-09T09:09:45.610Z,102183.31
2024-05-09T09:14:47.308Z,102180.53
2024-05-09T09:19:48.923Z,102167.72
2024-05-09T09:24:51.446Z,102176.00
2024-05-09T09:29:53.095Z,102169.66
2024-05-09T09:34:54.774Z,102157.38
2024-05-09T09:39:58.876Z,102164.31
2024-05-09T09:45:05.330Z,102158.25
2024-05-09T09:50:14.199Z,102150.66
2024-05-09T09:55:19.041Z,102157.19
2024-05-09T10:00:27.225Z,102156.91
2024-05-09T10:05:34.953Z,102156.75
2024-05-09T10:10:37.007Z,102146.88
2024-05-09T10:15:52.418Z,102143.63
2024-05-09T10:20:54.542Z,102149.34
2024-05-09T10:26:06.291Z,102135.03
2024-05-09T10:31:08.363Z,102131.53
2024-05-09T10:36:14.158Z,102125.25
2024-05-09T10:41:19.699Z,102116.13
2024-05-09T10:46:21.874Z,102112.63
2024-05-09T10:51:24.487Z,102106.44
2024-05-09T10:56:26.368Z,102101.91
2024-05-09T11:01:28.714Z,102099.91
2024-05-09T11:06:30.564Z,102095.28
2024-05-09T11:11:32.463Z,102093.31
2024-05-09T11:16:34.077Z,102091.69
2024-05-09T11:21:35.645Z,102082.22
2024-05-09T11:26:37.303Z,102080.72
2024-05-09T11:31:48.698Z,102078.19
2024-05-09T11:36:50.374Z,102074.03
2024-05-09T11:41:51.968Z,102057.81
2024-05-09T11:46:54.520Z,102059.66
2024-05-09T11:51:56.222Z,102051.22
2024-05-09T11:56:57.850Z,102051.41
2024-05-09T12:01:59.531Z,102043.63
2024-05-09T12:07:01.212Z,102039.75
2024-05-09T12:12:02.867Z,102041.38
2024-05-09T12:17:05.563Z,102036.63
2024-05-09T12:22:07.267Z,102033.94
2024-05-09T12:27:09.073Z,102029.97
2024-05-09T12:32:10.754Z,102026.81
2024-05-09T12:37:12.442Z,102029.06
2024-05-09T12:42:26.030Z,102017.81
2024-05-09T12:47:29.339Z,102012.75
2024-05-09T12:52:31.394Z,101995.47
2024-05-09T12:57:33.060Z,101997.38
2024-05-09T13:02:34.774Z,101995.88
2024-05-09T13:07:36.474Z,101990.78
2024-05-09T13:12:38.441Z,101985.13
2024-05-09T13:17:40.190Z,101975.19
2024-05-09T13:22:42.496Z,101970.38
2024-05-09T13:27:45.033Z,101971.22
2024-05-09T13:32:46.679Z,101965.06
2024-05-09T13:37:48.362Z,101958.03
2024-05-09T13:42:49.998Z,101956.84
2024-05-09T13:47:51.664Z,101957.06
2024-05-09T13:52:53.415Z,101954.09
2024-05-09T13:57:55.379Z,101943.25
2024-05-09T14:02:57.298Z,101937.91
2024-05-09T14:07:58.947Z,101933.13
2024-05-09T14:13:01.176Z,101931.44
2024-05-09T14:18:03.948Z,101933.47
2024-05-09T14:23:05.559Z,101922.75
2024-05-09T14:28:07.395Z,101915.88
2024-05-09T14:33:09.666Z,101911.91
2024-05-09T14:38:11.509Z,101907.00
2024-05-09T14:43:14.764Z,101902.25
2024-05-09T14:48:17.214Z,101897.16
2024-05-09T14:53:18.971Z,101890.56
2024-05-09T14:58:20.863Z,101892.25
2024-05-09T15:03:22.910Z,101879.72
2024-05-09T15:08:24.729Z,101887.81
2024-05-09T15:13:26.550Z,101882.56
2024-05-09T15:18:28.504Z,101879.94
2024-05-09T15:23:30.114Z,101877.84
2024-05-09T15:28:31.849Z,101873.22
2024-05-09T15:33:33.612Z,101863.16
2024-05-09T15:38:35.497Z,101857.81
2024-05-09T15:43:37.081Z,101855.75
2024-05-09T15:48:42.681Z,101848.72
2024-05-09T15:53:46.181Z,101856.94
2024-05-09T15:58:47.820Z,101848.06
2024-05-09T16:03:49.695Z,101846.94
2024-05-09T16:08:51.517Z,101839.19
2024-05-09T16:13:53.058Z,101841.50
2024-05-09T16:18:54.905Z,101833.91
2024-05-09T16:23:56.545Z,101833.91
2024-05-09T16:28:58.200Z,101833.03
2024-05-09T16:34:00.060Z,101835.63
2024-05-09T16:39:01.897Z,101822.44
2024-05-09T16:44:04.179Z,101826.13
2024-05-09T16:49:05.892Z,101822.44
2024-05-09T16:54:07.521Z,101815.91
2024-05-09T16:59:09.260Z,101822.19
2024-05-09T17:04:10.995Z,101821.22
2024-05-09T17:09:15.611Z,101821.53
2024-05-09T17:14:19.826Z,101815.94
2024-05-09T17:19:21.520Z,101819.41
2024-05-09T17:24:23.259Z,101816.59
2024-05-09T17:29:24.893Z,101813.28
2024-05-09T17:34:27.077Z,101814.13
2024-05-09T17:39:28.732Z,101815.16
2024-05-09T17:44:30.283Z,101805.25
2024-05-09T17:49:32.278Z,101805.38
2024-05-09T17:54:33.985Z,101817.59
2024-05-09T17:59:35.594Z,101805.09
2024-05-09T18:04:37.224Z,101812.16
2024-05-09T18:09:38.951Z,101814.31
2024-05-09T18:14:40.996Z,101810.69
2024-05-09T18:19:42.645Z,101809.53
2024-05-09T18:24:44.263Z,101803.22
2024-05-09T18:29:45.829Z,101811.09
2024-05-09T18:34:47.454Z,101807.13
2024-05-09T18:39:49.255Z,101813.38
2024-05-09T18:44:50.927Z,101816.59
2024-05-09T18:49:53.024Z,101827.00
2024-05-09T18:54:55.029Z,101833.66
2024-05-09T18:59:56.689Z,101826.56
2024-05-09T19:04:58.452Z,101831.28
2024-05-09T19:10:00.730Z,101835.72
2024-05-09T19:15:02.325Z,101828.59
2024-05-09T19:20:05.771Z,101835.41
2024-05-09T19:25:07.899Z,101846.28
2024-05-09T19:30:17.242Z,101850.44
2024-05-09T19:35:23.337Z,101857.31
2024-05-09T19:40:30.819Z,101856.22
2024-05-09T19:45:35.646Z,101862.25
2024-05-09T19:50:42.907Z,101861.66
2024-05-09T19:55:46.213Z,101863.66
2024-05-09T20:00:48.021Z,101858.72
2024-05-09T20:05:49.865Z,101862.38
2024-05-09T20:10:51.521Z,101867.53
2024-05-09T20:15:53.188Z,101873.63
2024-05-09T20:20:54.790Z,101869.75
2024-05-09T20:25:56.454Z,101876.16
2024-05-09T20:30:58.007Z,101868.56
2024-05-09T20:36:01.822Z,101873.28
2024-05-09T20:41:04.092Z,101871.50
2024-05-09T20:46:05.886Z,101865.94
2024-05-09T20:51:07.579Z,101866.31
2024-05-09T20:56:09.258Z,101866.28
2024-05-09T21:01:10.913Z,101860.34
2024-05-09T21:06:12.669Z,101875.59
2024-05-09T21:11:14.223Z,101873.97
2024-05-09T21:16:15.878Z,101868.28
2024-05-09T21:21:17.562Z,101870.03
2024-05-09T21:26:20.344Z,101864.22
2024-05-09T21:31:21.948Z,101865.13
2024-05-09T21:36:23.580Z,101871.03
2024-05-09T21:41:25.257Z,101866.78
2024-05-09T21:46:27.006Z,101873.97
2024-05-09T21:51:29.106Z,101867.63
2024-05-09T21:56:30.776Z,101868.06
2024-05-09T22:01:33.958Z,101863.59
2024-05-09T22:06:35.677Z,101857.97
2024-05-09T22:11:37.437Z,101873.06
2024-05-09T22:16:41.815Z,101876.91
2024-05-09T22:21:43.428Z,101875.53
2024-05-09T22:26:45.021Z,101878.25
2024-05-09T22:31:46.620Z,101876.72
2024-05-09T22:36:48.299Z,101876.53
2024-05-09T22:41:50.329Z,101876.28
2024-05-09T22:46:51.928Z,101875.75
2024-05-09T22:51:53.542Z,101873.22
2024-05-09T22:56:55.125Z,101875.16
2024-05-09T23:01:56.840Z,101872.94
2024-05-09T23:06:59.349Z,101875.56
2024-05-09T23:12:01.125Z,101871.31
2024-05-09T23:17:02.885Z,101867.13
2024-05-09T23:22:04.598Z,101859.41
2024-05-09T23:27:06.166Z,101856.78
2024-05-09T23:32:09.380Z,101856.91
2024-05-09T23:37:11.037Z,101856.00
2024-05-09T23:42:12.697Z,101854.16
2024-05-09T23:47:14.277Z,101855.63
2024-05-09T23:52:15.971Z,101848.66
2024-05-09T23:57:17.577Z,101851.59
